Time;durP1;ratioP1;P1;durP2;ratioP2;P2;SDS_P1;SDS_P2;PMS_P1;PMS_P2;Temp;Humidity;BMP_temperature;BMP_pressure;BME280_temperature;BME280_humidity;BME280_pressure;Samples;Min_cycle;Max_cycle;Signal;HPM_P1;HPM_P2
2021/09/18 00:01:59;;;;;;;;;;;;;;;4.77;74.63;100248.03;5083201;27;19938;-87
2021/09/18 00:04:25;;;;;;;;;;;;;;;4.75;74.98;100254.75;5135590;27;19923;-88
2021/09/18 00:06:51;;;;;;;;;;;;;;;4.77;75.50;100247.19;5135770;27;20440;-89
2021/09/18 00:09:20;;;;;;;;;;;;;;;4.79;75.46;100256.69;5134976;27;19928;-89
2021/09/18 00:11:46;;;;;;;;;;;;;;;4.74;75.79;100262.06;5099889;27;19923;-89
2021/09/18 00:14:12;;;;;;;;;;;;;;;4.71;75.92;100249.03;5116664;27;19923;-88
2021/09/18 00:16:37;;;;;;;;;;;;;;;4.64;76.38;100262.75;5096545;28;19930;-87
2021/09/18 00:19:03;;;;;;;;;;;;;;;4.59;76.45;100256.44;5117236;27;19968;-90
2021/09/18 00:21:29;;;;;;;;;;;;;;;4.58;76.54;100255.63;5096497;28;20201;-89
2021/09/18 00:23:56;;;;;;;;;;;;;;;4.58;77.12;100262.94;5113786;28;19924;-88
2021/09/18 00:26:22;;;;;;;;;;;;;;;4.55;77.38;100252.59;5119796;27;19930;-88
2021/09/18 00:28:48;;;;;;;;;;;;;;;4.60;76.88;100264.34;5135426;27;20319;-88
2021/09/18 00:31:13;;;;;;;;;;;;;;;4.59;77.04;100259.16;5135268;27;19976;-88
2021/09/18 00:33:41;;;;;;;;;;;;;;;4.61;77.19;100267.84;5116058;27;19975;-89
2021/09/18 00:36:07;;;;;;;;;;;;;;;4.58;77.33;100262.94;5116579;27;19923;-88
2021/09/18 00:38:33;;;;;;;;;;;;;;;4.53;77.32;100260.97;5116355;27;19924;-89
2021/09/18 00:40:59;;;;;;;;;;;;;;;4.52;77.46;100262.03;5116350;27;19924;-89
2021/09/18 00:43:26;;;;;;;;;;;;;;;4.47;77.92;100254.69;5135295;27;19930;-90
2021/09/18 00:45:51;;;;;;;;;;;;;;;4.47;77.83;100262.81;5134543;27;20026;-88
2021/09/18 00:48:17;;;;;;;;;;;;;;;4.52;77.77;100266.63;5116542;27;19923;-90
2021/09/18 00:50:43;;;;;;;;;;;;;;;4.51;77.62;100265.81;5134852;27;20296;-91
2021/09/18 00:53:10;;;;;;;;;;;;;;;4.53;77.41;100265.56;5134737;27;19928;-91
2021/09/18 00:55:36;;;;;;;;;;;;;;;4.55;77.20;100274.25;5116772;27;19923;-89
2021/09/18 00:58:02;;;;;;;;;;;;;;;4.56;77.39;100275.91;5115924;27;19923;-88
2021/09/18 01:00:28;;;;;;;;;;;;;;;4.52;77.46;100272.06;5116580;27;19999;-89
2021/09/18 01:02:54;;;;;;;;;;;;;;;4.52;77.60;100272.06;5099299;27;19968;-89
2021/09/18 01:05:20;;;;;;;;;;;;;;;4.48;77.52;100275.25;5116598;27;19927;-89
2021/09/18 01:07:47;;;;;;;;;;;;;;;4.43;77.50;100277.88;5116697;27;20296;-89
2021/09/18 01:10:13;;;;;;;;;;;;;;;4.45;77.57;100283.06;5145947;27;19931;-87
2021/09/18 01:12:57;;;;;;;;;;;;;;;4.48;77.52;100286.09;5098295;27;20448;-89
2021/09/18 01:15:26;;;;;;;;;;;;;;;4.43;77.51;100287.88;5134380;27;20025;-89
2021/09/18 01:17:52;;;;;;;;;;;;;;;4.41;77.78;100282.75;5099163;27;20317;-89
2021/09/18 01:20:18;;;;;;;;;;;;;;;4.37;77.85;100281.59;5095090;28;19924;-89
2021/09/18 01:22:44;;;;;;;;;;;;;;;4.37;77.92;100288.88;5117613;27;19962;-88
2021/09/18 01:25:10;;;;;;;;;;;;;;;4.36;77.87;100287.25;5133962;27;19931;-88
2021/09/18 01:27:36;;;;;;;;;;;;;;;4.38;77.63;100287.84;5116108;27;19924;-91
2021/09/18 01:30:03;;;;;;;;;;;;;;;4.30;78.17;100289.06;5134066;27;19924;-88
2021/09/18 01:32:29;;;;;;;;;;;;;;;4.30;78.12;100286.34;5115464;27;19923;-91
2021/09/18 01:34:55;;;;;;;;;;;;;;;4.35;78.07;100283.72;5115341;27;19930;-88
2021/09/18 01:37:21;;;;;;;;;;;;;;;4.41;77.28;100292.75;5114722;28;20308;-89
2021/09/18 01:39:47;;;;;;;;;;;;;;;4.45;76.51;100293.88;5114919;27;19923;-89
2021/09/18 01:42:13;;;;;;;;;;;;;;;4.53;76.15;100300.75;5115806;27;19930;-88
2021/09/18 01:44:39;;;;;;;;;;;;;;;4.56;75.69;100289.44;5115683;27;20277;-89
2021/09/18 01:47:05;;;;;;;;;;;;;;;4.42;76.25;100297.91;5115079;27;19980;-89
2021/09/18 01:49:32;;;;;;;;;;;;;;;4.32;76.63;100294.22;5098315;27;20297;-89
2021/09/18 01:52:08;;;;;;;;;;;;;;;4.26;76.54;100296.03;5115537;27;19923;-90
2021/09/18 01:54:37;;;;;;;;;;;;;;;4.16;76.96;100299.41;5133868;27;20277;-89
2021/09/18 01:57:06;;;;;;;;;;;;;;;4.05;77.50;100299.50;5133410;27;19923;-88
2021/09/18 01:59:32;;;;;;;;;;;;;;;4.03;77.42;100293.50;5115299;27;19931;-88
2021/09/18 02:01:59;;;;;;;;;;;;;;;3.87;78.28;100301.34;5133487;27;20380;-89
2021/09/18 02:04:26;;;;;;;;;;;;;;;3.85;78.41;100305.38;5115373;27;19923;-87
2021/09/18 02:06:52;;;;;;;;;;;;;;;3.82;78.31;100303.16;5149500;27;19923;-87
2021/09/18 02:09:20;;;;;;;;;;;;;;;3.80;78.60;100303.38;5131954;27;19927;-89
2021/09/18 02:11:46;;;;;;;;;;;;;;;3.77;78.73;100298.47;5114839;27;19946;-89
2021/09/18 02:14:12;;;;;;;;;;;;;;;3.69;78.97;100297.00;5133373;27;19962;-89
2021/09/18 02:16:38;;;;;;;;;;;;;;;3.68;79.37;100294.53;5133437;27;19930;-90
2021/09/18 02:19:03;;;;;;;;;;;;;;;3.61;79.69;100301.97;5094636;27;19945;-87
2021/09/18 02:21:29;;;;;;;;;;;;;;;3.60;79.91;100300.34;5115124;27;19930;-89
2021/09/18 02:23:56;;;;;;;;;;;;;;;3.63;79.90;100302.56;5132882;27;19957;-89
2021/09/18 02:26:23;;;;;;;;;;;;;;;3.61;79.65;100299.25;5133247;27;19930;-89
2021/09/18 02:28:49;;;;;;;;;;;;;;;3.57;80.04;100309.75;5133003;27;19923;-89
2021/09/18 02:31:15;;;;;;;;;;;;;;;3.56;80.12;100302.69;5094624;28;20314;-87
2021/09/18 02:33:43;;;;;;;;;;;;;;;3.50;80.17;100309.06;5132923;27;19946;-89
2021/09/18 02:36:09;;;;;;;;;;;;;;;3.47;80.20;100309.56;5114592;27;20395;-88
2021/09/18 02:38:35;;;;;;;;;;;;;;;3.48;80.08;100317.44;5114011;27;19927;-88
2021/09/18 02:41:00;;;;;;;;;;;;;;;3.48;79.71;100314.72;5114707;27;19935;-91
2021/09/18 02:43:26;;;;;;;;;;;;;;;3.44;79.72;100318.16;5132340;27;19937;-88
2021/09/18 02:45:53;;;;;;;;;;;;;;;3.39;79.55;100313.47;5114413;28;19923;-89
2021/09/18 02:48:19;;;;;;;;;;;;;;;3.33;79.65;100322.53;5133099;28;19924;-89
2021/09/18 02:50:46;;;;;;;;;;;;;;;3.24;80.21;100321.28;5132460;27;19923;-87
2021/09/18 02:53:12;;;;;;;;;;;;;;;3.22;80.32;100328.81;5124636;28;19927;-89
2021/09/18 02:55:38;;;;;;;;;;;;;;;3.20;80.23;100328.22;5132469;28;19946;-87
2021/09/18 02:58:04;;;;;;;;;;;;;;;3.18;80.35;100328.47;5112723;28;19927;-88
2021/09/18 03:00:30;;;;;;;;;;;;;;;3.18;80.53;100330.31;5132715;28;20281;-88
2021/09/18 03:02:56;;;;;;;;;;;;;;;3.18;80.63;100328.47;5113959;28;19923;-88
2021/09/18 03:05:22;;;;;;;;;;;;;;;3.21;80.29;100327.16;5132884;28;19923;-88
2021/09/18 03:07:48;;;;;;;;;;;;;;;3.23;80.38;100335.84;5113997;28;19923;-90
2021/09/18 03:10:14;;;;;;;;;;;;;;;3.23;80.40;100333.16;5114487;28;20053;-88
2021/09/18 03:12:41;;;;;;;;;;;;;;;3.24;80.30;100334.78;5113517;28;19927;-86
2021/09/18 03:15:08;;;;;;;;;;;;;;;3.26;79.83;100338.06;5129120;28;19924;-89
2021/09/18 03:17:34;;;;;;;;;;;;;;;3.21;80.09;100338.81;5111010;28;20038;-89
2021/09/18 03:20:00;;;;;;;;;;;;;;;3.19;80.18;100346.31;5114816;28;20509;-94
2021/09/18 03:22:26;;;;;;;;;;;;;;;3.16;80.15;100343.28;5113632;28;19923;-88
2021/09/18 03:24:52;;;;;;;;;;;;;;;3.13;79.97;100349.97;5132576;28;19927;-86
2021/09/18 03:27:19;;;;;;;;;;;;;;;3.15;80.13;100341.63;5131960;28;19923;-86
2021/09/18 03:29:44;;;;;;;;;;;;;;;3.14;79.75;100343.50;5093646;28;20457;-86
2021/09/18 03:32:12;;;;;;;;;;;;;;;3.14;79.75;100346.19;5114198;28;19924;-79
2021/09/18 03:34:40;;;;;;;;;;;;;;;3.13;79.78;100339.16;5132441;28;20022;-79
2021/09/18 03:37:06;;;;;;;;;;;;;;;3.17;79.92;100350.31;5132023;28;19923;-78
2021/09/18 03:39:32;;;;;;;;;;;;;;;3.15;79.77;100339.75;5132406;28;20351;-77
2021/09/18 03:41:58;;;;;;;;;;;;;;;3.17;79.85;100351.13;5132403;28;19923;-78
2021/09/18 03:44:24;;;;;;;;;;;;;;;3.19;80.15;100357.13;5132185;28;19923;-77
2021/09/18 03:46:51;;;;;;;;;;;;;;;3.20;79.89;100369.56;5132685;28;19961;-78
2021/09/18 03:49:17;;;;;;;;;;;;;;;3.21;80.06;100373.94;5132503;28;20342;-78
2021/09/18 03:51:43;;;;;;;;;;;;;;;3.25;79.98;100360.75;5131088;28;19927;-78
2021/09/18 03:54:09;;;;;;;;;;;;;;;3.30;79.64;100358.16;5132451;28;19934;-78
2021/09/18 03:56:35;;;;;;;;;;;;;;;3.28;79.78;100366.50;5132581;28;19928;-78
2021/09/18 03:59:01;;;;;;;;;;;;;;;3.29;79.84;100370.03;5113328;28;19933;-78
2021/09/18 04:01:28;;;;;;;;;;;;;;;3.34;79.80;100370.13;5133392;27;19938;-76
2021/09/18 04:03:55;;;;;;;;;;;;;;;3.42;79.89;100377.03;5135989;27;20319;-77
2021/09/18 04:06:21;;;;;;;;;;;;;;;3.42;79.69;100382.44;5135790;27;19919;-78
2021/09/18 04:08:47;;;;;;;;;;;;;;;3.48;79.65;100378.78;5135986;27;19984;-78
2021/09/18 04:11:14;;;;;;;;;;;;;;;3.50;79.58;100382.88;5135479;27;19954;-78
2021/09/18 04:13:39;;;;;;;;;;;;;;;3.57;79.23;100387.31;5135384;27;20019;-78
2021/09/18 04:16:06;;;;;;;;;;;;;;;3.66;78.84;100394.81;5135459;27;19931;-79
2021/09/18 04:18:32;;;;;;;;;;;;;;;3.70;78.90;100387.03;5135711;27;19923;-77
2021/09/18 04:20:58;;;;;;;;;;;;;;;3.69;78.72;100388.13;5135606;27;20070;-78
2021/09/18 04:23:23;;;;;;;;;;;;;;;3.70;78.84;100393.28;5134503;27;19973;-77
2021/09/18 04:25:51;;;;;;;;;;;;;;;3.68;79.23;100386.47;5135162;27;19920;-88
2021/09/18 04:28:17;;;;;;;;;;;;;;;3.70;79.32;100393.28;5135263;27;19930;-77
2021/09/18 04:30:43;;;;;;;;;;;;;;;3.70;79.46;100395.16;5135607;27;19946;-77
2021/09/18 04:33:09;;;;;;;;;;;;;;;3.75;79.50;100403.38;5135272;27;20327;-78
2021/09/18 04:35:36;;;;;;;;;;;;;;;3.78;79.34;100400.19;5134985;27;20276;-77
2021/09/18 04:38:02;;;;;;;;;;;;;;;3.85;79.45;100397.34;5134992;27;19924;-77
2021/09/18 04:40:28;;;;;;;;;;;;;;;3.91;78.90;100396.38;5135073;27;19930;-78
2021/09/18 04:42:54;;;;;;;;;;;;;;;4.02;78.62;100398.19;5134682;27;19924;-78
2021/09/18 04:45:21;;;;;;;;;;;;;;;4.08;78.48;100399.94;5135044;27;20353;-78
2021/09/18 04:47:46;;;;;;;;;;;;;;;4.15;78.60;100387.06;5134762;27;19924;-77
2021/09/18 04:50:12;;;;;;;;;;;;;;;4.27;78.07;100388.88;5134399;27;19924;-77
2021/09/18 04:52:38;;;;;;;;;;;;;;;4.38;77.79;100391.53;5134631;27;19959;-82
2021/09/18 04:55:04;;;;;;;;;;;;;;;4.44;77.43;100390.53;5134978;27;19923;-77
2021/09/18 04:57:30;;;;;;;;;;;;;;;4.53;77.57;100395.53;5133376;27;20412;-77
2021/09/18 04:59:57;;;;;;;;;;;;;;;4.55;77.36;100391.53;5132644;27;19923;-88
2021/09/18 05:02:23;;;;;;;;;;;;;;;4.59;76.72;100392.66;5132757;27;19930;-89
2021/09/18 05:04:50;;;;;;;;;;;;;;;4.66;76.49;100392.50;5114053;27;19934;-78
2021/09/18 05:07:16;;;;;;;;;;;;;;;4.75;76.31;100388.31;5132867;27;19923;-78
2021/09/18 05:09:42;;;;;;;;;;;;;;;4.81;76.58;100398.16;5133054;27;19924;-77
2021/09/18 05:12:08;;;;;;;;;;;;;;;4.85;76.41;100393.06;5132535;27;19927;-80
2021/09/18 05:14:33;;;;;;;;;;;;;;;4.91;76.32;100390.16;5132926;27;20370;-78
2021/09/18 05:16:59;;;;;;;;;;;;;;;4.90;76.16;100396.66;5133050;27;19941;-89
2021/09/18 05:19:26;;;;;;;;;;;;;;;4.90;76.53;100393.97;5132940;27;20022;-77
2021/09/18 05:21:51;;;;;;;;;;;;;;;4.95;76.28;100388.59;5132731;27;20428;-85
2021/09/18 05:24:18;;;;;;;;;;;;;;;5.00;76.48;100404.13;5131805;27;19923;-81
2021/09/18 05:26:44;;;;;;;;;;;;;;;5.02;75.48;100395.72;5132932;27;19930;-91
2021/09/18 05:29:10;;;;;;;;;;;;;;;5.08;75.65;100400.97;5132642;27;19979;-78
2021/09/18 05:31:36;;;;;;;;;;;;;;;5.17;75.54;100406.78;5132988;27;20399;-89
2021/09/18 05:34:02;;;;;;;;;;;;;;;5.32;74.89;100406.97;5132967;27;19924;-96
2021/09/18 05:36:28;;;;;;;;;;;;;;;5.43;74.33;100410.66;5133094;27;20392;-92
2021/09/18 05:38:54;;;;;;;;;;;;;;;5.54;74.16;100417.03;5117062;27;19927;-94
2021/09/18 05:41:20;;;;;;;;;;;;;;;5.56;74.32;100409.44;5135719;27;19927;-90
2021/09/18 05:43:45;;;;;;;;;;;;;;;5.60;74.20;100416.84;5134359;27;20304;-91
2021/09/18 05:46:11;;;;;;;;;;;;;;;5.63;73.35;100412.81;5134574;27;20618;-94
2021/09/18 05:48:38;;;;;;;;;;;;;;;5.67;73.70;100419.34;5115461;27;19945;-88
2021/09/18 05:51:04;;;;;;;;;;;;;;;5.70;73.66;100423.47;5137797;27;20304;-92
2021/09/18 05:53:30;;;;;;;;;;;;;;;5.73;73.94;100412.94;5133901;27;20025;-88
2021/09/18 05:55:56;;;;;;;;;;;;;;;5.73;73.63;100412.94;5132703;27;19919;-87
2021/09/18 05:58:22;;;;;;;;;;;;;;;5.80;73.48;100415.44;5133384;27;19936;-86
2021/09/18 06:00:48;;;;;;;;;;;;;;;5.87;73.14;100413.34;5123079;27;19923;-88
2021/09/18 06:03:15;;;;;;;;;;;;;;;6.01;73.57;100413.78;5133747;27;19930;-87
2021/09/18 06:05:41;;;;;;;;;;;;;;;6.07;72.92;100410.06;5133029;27;19923;-87
2021/09/18 06:08:07;;;;;;;;;;;;;;;6.10;72.66;100414.97;5131995;27;19932;-86
2021/09/18 06:10:32;;;;;;;;;;;;;;;6.19;71.98;100420.75;5113486;27;19923;-87
2021/09/18 06:12:59;;;;;;;;;;;;;;;6.33;72.60;100417.38;5097708;27;19931;-88
2021/09/18 06:15:25;;;;;;;;;;;;;;;6.46;72.10;100413.41;5093505;27;19923;-94
2021/09/18 06:17:51;;;;;;;;;;;;;;;6.51;71.29;100418.88;5132843;27;20312;-88
2021/09/18 06:20:17;;;;;;;;;;;;;;;6.59;71.64;100417.59;5132093;27;19927;-88
2021/09/18 06:22:43;;;;;;;;;;;;;;;6.65;71.13;100421.16;5118251;27;19998;-88
2021/09/18 06:25:11;;;;;;;;;;;;;;;6.78;70.98;100421.53;5134323;27;19924;-79
2021/09/18 06:27:38;;;;;;;;;;;;;;;6.81;71.19;100422.91;5131839;27;19931;-81
2021/09/18 06:30:05;;;;;;;;;;;;;;;6.86;70.49;100420.25;5133317;27;19924;-81
2021/09/18 06:32:31;;;;;;;;;;;;;;;7.11;73.61;100422.28;5135186;27;20026;-91
2021/09/18 06:34:57;;;;;;;;;;;;;;;7.10;69.21;100414.41;5133990;27;20424;-80
2021/09/18 06:37:23;;;;;;;;;;;;;;;7.14;69.02;100408.16;5112746;28;19924;-80
2021/09/18 06:39:48;;;;;;;;;;;;;;;7.20;69.13;100418.00;5132324;28;19935;-80
2021/09/18 06:42:15;;;;;;;;;;;;;;;7.27;68.12;100417.78;5132702;27;19927;-81
2021/09/18 06:44:41;;;;;;;;;;;;;;;7.26;68.87;100414.22;5114587;27;19923;-80
2021/09/18 06:47:07;;;;;;;;;;;;;;;7.34;68.20;100426.50;5133073;27;19923;-80
2021/09/18 06:49:33;;;;;;;;;;;;;;;7.41;68.54;100418.91;5132779;28;19926;-80
2021/09/18 06:52:01;;;;;;;;;;;;;;;7.46;67.65;100424.41;5132657;28;19927;-81
2021/09/18 06:54:26;;;;;;;;;;;;;;;7.57;67.96;100433.41;5132645;28;19923;-81
2021/09/18 06:56:53;;;;;;;;;;;;;;;7.72;67.65;100422.59;5132873;28;19926;-81
2021/09/18 06:59:19;;;;;;;;;;;;;;;7.81;67.52;100424.78;5132570;28;19924;-80
2021/09/18 07:01:45;;;;;;;;;;;;;;;7.88;67.21;100422.63;5132626;28;19946;-80
2021/09/18 07:04:11;;;;;;;;;;;;;;;7.98;65.31;100423.50;5132657;28;19973;-80
2021/09/18 07:06:36;;;;;;;;;;;;;;;8.06;65.32;100411.25;5132601;28;20307;-80
2021/09/18 07:09:02;;;;;;;;;;;;;;;8.18;65.01;100416.47;5132559;28;19923;-81
2021/09/18 07:11:29;;;;;;;;;;;;;;;8.29;65.14;100406.41;5132795;28;19927;-81
2021/09/18 07:13:55;;;;;;;;;;;;;;;8.31;64.27;100409.66;5132761;28;20269;-81
2021/09/18 07:16:21;;;;;;;;;;;;;;;8.32;64.12;100403.13;5132374;28;19928;-81
2021/09/18 07:18:47;;;;;;;;;;;;;;;8.28;63.56;100408.31;5132641;28;20019;-81
2021/09/18 07:21:16;;;;;;;;;;;;;;;8.29;63.53;100407.22;5132286;28;20014;-80
2021/09/18 07:23:42;;;;;;;;;;;;;;;8.33;62.85;100402.84;5132326;28;19961;-81
2021/09/18 07:26:10;;;;;;;;;;;;;;;8.27;63.65;100406.66;5132737;28;19959;-81
2021/09/18 07:28:36;;;;;;;;;;;;;;;8.30;63.77;100397.94;5132363;28;19924;-80
2021/09/18 07:31:03;;;;;;;;;;;;;;;8.33;63.11;100396.59;5132634;28;19930;-81
2021/09/18 07:33:29;;;;;;;;;;;;;;;8.44;63.21;100384.63;5132438;28;19923;-82
2021/09/18 07:35:56;;;;;;;;;;;;;;;8.60;63.06;100391.69;5132582;27;19927;-80
2021/09/18 07:38:21;;;;;;;;;;;;;;;8.69;61.79;100398.25;5136039;27;20061;-80
2021/09/18 07:40:47;;;;;;;;;;;;;;;8.77;60.19;100387.88;5136153;27;19923;-81
2021/09/18 07:43:13;;;;;;;;;;;;;;;8.85;59.40;100384.59;5136127;27;20040;-80
2021/09/18 07:45:39;;;;;;;;;;;;;;;8.89;60.34;100388.41;5136288;27;20304;-80
2021/09/18 07:48:05;;;;;;;;;;;;;;;9.02;59.75;100381.56;5136239;27;20014;-80
2021/09/18 07:50:30;;;;;;;;;;;;;;;9.09;59.98;100388.38;5135970;27;20307;-80
2021/09/18 07:52:56;;;;;;;;;;;;;;;9.11;59.80;100383.47;5136014;27;19996;-80
2021/09/18 07:55:26;;;;;;;;;;;;;;;9.21;58.22;100379.91;5135917;27;19924;-81
2021/09/18 07:57:52;;;;;;;;;;;;;;;9.40;58.43;100374.63;5135845;27;19927;-81
2021/09/18 08:00:18;;;;;;;;;;;;;;;9.39;56.74;100379.25;5135830;27;19927;-81
2021/09/18 08:02:43;;;;;;;;;;;;;;;9.34;56.42;100382.03;5135996;27;19968;-80
2021/09/18 08:05:09;;;;;;;;;;;;;;;9.27;56.45;100373.31;5135764;27;19947;-80
2021/09/18 08:07:38;;;;;;;;;;;;;;;9.28;56.10;100377.69;5135720;27;19963;-80
2021/09/18 08:10:08;;;;;;;;;;;;;;;9.31;55.60;100374.41;5135575;27;20026;-81
2021/09/18 08:12:34;;;;;;;;;;;;;;;9.50;56.87;100388.22;5135865;27;19927;-81
2021/09/18 08:15:02;;;;;;;;;;;;;;;9.71;55.69;100380.78;5135774;27;19923;-81
2021/09/18 08:17:28;;;;;;;;;;;;;;;9.87;56.17;100378.78;5135574;27;19930;-81
2021/09/18 08:19:54;;;;;;;;;;;;;;;9.90;54.80;100386.41;5135501;27;19923;-81
2021/09/18 08:22:20;;;;;;;;;;;;;;;9.80;54.26;100390.00;5135389;27;19970;-80
2021/09/18 08:24:46;;;;;;;;;;;;;;;9.70;53.07;100387.34;5117438;27;19931;-89
2021/09/18 08:27:12;;;;;;;;;;;;;;;9.78;54.20;100394.13;5135561;27;19946;-81
2021/09/18 08:29:38;;;;;;;;;;;;;;;9.96;53.49;100382.53;5116835;27;20398;-81
2021/09/18 08:32:04;;;;;;;;;;;;;;;10.08;51.70;100387.66;5135217;27;19923;-81
2021/09/18 08:34:30;;;;;;;;;;;;;;;10.08;51.11;100385.75;5135143;27;20018;-80
2021/09/18 08:36:56;;;;;;;;;;;;;;;10.07;51.66;100386.84;5134904;27;20061;-80
2021/09/18 08:39:23;;;;;;;;;;;;;;;10.11;52.34;100385.19;5135270;27;19923;-81
2021/09/18 08:41:49;;;;;;;;;;;;;;;10.14;53.00;100386.53;5135068;27;19923;-81
2021/09/18 08:44:15;;;;;;;;;;;;;;;10.12;52.66;100381.34;5134983;27;19923;-80
2021/09/18 08:46:42;;;;;;;;;;;;;;;10.15;52.58;100374.50;5134833;27;19926;-80
2021/09/18 08:49:09;;;;;;;;;;;;;;;10.11;52.64;100373.44;5135086;27;19923;-80
2021/09/18 08:51:36;;;;;;;;;;;;;;;10.20;52.57;100369.00;5129559;27;19929;-79
2021/09/18 08:54:04;;;;;;;;;;;;;;;10.34;51.90;100371.94;5130504;27;19930;-87
2021/09/18 08:56:31;;;;;;;;;;;;;;;10.31;52.48;100384.25;5132778;27;20350;-89
2021/09/18 08:58:57;;;;;;;;;;;;;;;10.17;52.15;100372.31;5133290;27;19923;-81
2021/09/18 09:01:23;;;;;;;;;;;;;;;9.97;53.07;100376.00;5137508;27;20437;-85
2021/09/18 09:03:55;;;;;;;;;;;;;;;9.96;53.67;100370.78;5150523;27;20241;-85
2021/09/18 09:06:21;;;;;;;;;;;;;;;9.96;52.76;100368.06;5133214;27;19976;-89
2021/09/18 09:08:57;;;;;;;;;;;;;;;10.03;53.42;100368.56;5135864;27;19927;-83
2021/09/18 09:11:27;;;;;;;;;;;;;;;10.02;53.05;100378.66;5121561;27;19919;-91
2021/09/18 09:14:08;;;;;;;;;;;;;;;9.99;53.38;100365.56;5114119;27;19945;-90
2021/09/18 09:16:36;;;;;;;;;;;;;;;9.97;52.19;100373.25;5131990;27;19980;-87
2021/09/18 09:19:13;;;;;;;;;;;;;;;9.95;52.37;100364.50;5132230;27;20026;-91
2021/09/18 09:21:44;;;;;;;;;;;;;;;9.96;52.44;100365.31;5129942;27;19923;-80
2021/09/18 09:24:12;;;;;;;;;;;;;;;10.04;53.11;100360.09;5110235;27;19934;-82
2021/09/18 09:26:42;;;;;;;;;;;;;;;10.17;52.79;100361.38;5128338;27;19931;-80
2021/09/18 09:29:08;;;;;;;;;;;;;;;10.14;50.75;100356.47;5129859;27;20033;-80
2021/09/18 09:31:35;;;;;;;;;;;;;;;10.21;52.43;100367.88;5131365;27;19934;-81
2021/09/18 09:34:03;;;;;;;;;;;;;;;10.31;51.84;100365.09;5128917;27;20014;-81
2021/09/18 09:36:30;;;;;;;;;;;;;;;10.32;52.43;100357.72;5133216;27;19923;-79
2021/09/18 09:38:59;;;;;;;;;;;;;;;10.39;51.94;100360.94;5130834;27;20303;-91
2021/09/18 09:41:36;;;;;;;;;;;;;;;10.61;52.80;100359.69;5112638;27;19931;-79
2021/09/18 09:44:04;;;;;;;;;;;;;;;10.62;50.21;100364.84;5129385;27;20018;-88
2021/09/18 09:46:29;;;;;;;;;;;;;;;10.69;50.56;100362.59;5130451;27;20068;-87
2021/09/18 09:49:02;;;;;;;;;;;;;;;10.67;51.55;100364.81;5127795;27;20456;-80
2021/09/18 09:51:28;;;;;;;;;;;;;;;10.77;50.58;100366.63;5137038;27;19929;-81
2021/09/18 09:54:13;;;;;;;;;;;;;;;10.77;49.63;100367.44;5149834;27;19927;-85
2021/09/18 09:56:39;;;;;;;;;;;;;;;11.03;50.44;100364.47;5150787;27;19938;-80
2021/09/18 09:59:04;;;;;;;;;;;;;;;11.36;50.99;100361.91;5154602;27;20045;-94
2021/09/18 10:01:31;;;;;;;;;;;;;;;11.68;49.70;100356.53;5155118;27;19979;-92
2021/09/18 10:03:56;;;;;;;;;;;;;;;11.96;50.81;100354.00;5155008;27;19984;-95
2021/09/18 10:06:24;;;;;;;;;;;;;;;12.18;47.21;100359.66;5136752;27;19978;-93
2021/09/18 10:08:50;;;;;;;;;;;;;;;12.19;47.90;100355.03;5154925;27;19954;-81
2021/09/18 10:11:24;;;;;;;;;;;;;;;12.26;47.07;100358.19;5154477;27;19957;-91
2021/09/18 10:13:52;;;;;;;;;;;;;;;12.37;47.17;100356.91;5155039;27;19923;-93
2021/09/18 10:16:18;;;;;;;;;;;;;;;12.37;46.48;100367.88;5136179;27;20288;-80
2021/09/18 10:19:07;;;;;;;;;;;;;;;12.46;47.25;100365.28;5138916;27;20395;-81
2021/09/18 10:24:39;;;;;;;;;;;;;;;11.60;49.50;100361.88;5154398;27;19941;-91
2021/09/18 10:27:12;;;;;;;;;;;;;;;11.45;49.60;100363.66;5153991;27;19923;-80
2021/09/18 10:29:39;;;;;;;;;;;;;;;11.51;48.92;100372.66;5153259;27;19923;-81
2021/09/18 10:32:05;;;;;;;;;;;;;;;11.57;47.71;100366.00;5152815;27;20327;-87
2021/09/18 10:34:33;;;;;;;;;;;;;;;11.77;47.88;100367.66;5153688;27;19926;-90
2021/09/18 10:36:59;;;;;;;;;;;;;;;11.77;48.72;100367.66;5152725;27;19923;-80
2021/09/18 10:39:25;;;;;;;;;;;;;;;11.91;48.67;100365.00;5154278;27;20018;-86
2021/09/18 10:41:54;;;;;;;;;;;;;;;11.93;48.39;100374.56;5153980;27;19999;-80
2021/09/18 10:44:21;;;;;;;;;;;;;;;11.71;48.16;100358.69;5153409;27;20406;-93
2021/09/18 10:46:50;;;;;;;;;;;;;;;11.60;48.53;100365.41;5153468;27;19975;-80
2021/09/18 10:49:41;;;;;;;;;;;;;;;11.49;49.13;100363.94;5154256;27;19930;-81
2021/09/18 10:52:24;;;;;;;;;;;;;;;11.49;49.67;100361.19;5153910;27;20436;-81
2021/09/18 10:55:08;;;;;;;;;;;;;;;11.67;50.33;100363.13;5089918;27;20348;-81
2021/09/18 10:58:08;;;;;;;;;;;;;;;11.95;49.81;100366.03;5172283;27;19927;-79
2021/09/18 11:00:52;;;;;;;;;;;;;;;11.84;49.75;100361.81;5069629;28;20411;-80
2021/09/18 11:03:34;;;;;;;;;;;;;;;11.85;48.71;100361.53;5069724;28;19924;-80
2021/09/18 11:06:32;;;;;;;;;;;;;;;11.68;50.49;100364.75;5089731;28;19977;-82
2021/09/18 11:09:12;;;;;;;;;;;;;;;11.75;49.04;100351.53;5082200;27;20183;-83
2021/09/18 11:12:11;;;;;;;;;;;;;;;11.95;49.50;100344.97;5068835;28;19978;-89
2021/09/18 11:15:05;;;;;;;;;;;;;;;11.96;48.86;100346.59;5080960;27;19978;-81
2021/09/18 11:17:46;;;;;;;;;;;;;;;11.80;49.33;100352.56;5089065;27;19920;-80
2021/09/18 11:20:33;;;;;;;;;;;;;;;11.55;49.73;100356.44;5064896;28;19978;-84
2021/09/18 11:23:13;;;;;;;;;;;;;;;11.52;49.46;100350.47;5061012;28;19978;-86
2021/09/18 11:25:53;;;;;;;;;;;;;;;11.55;50.42;100345.47;5170574;27;19927;-81
2021/09/18 11:28:36;;;;;;;;;;;;;;;11.60;49.55;100342.69;5141460;27;20041;-82
2021/09/18 11:31:17;;;;;;;;;;;;;;;11.56;49.44;100342.47;5170678;27;20377;-80
2021/09/18 11:33:58;;;;;;;;;;;;;;;11.76;49.41;100335.91;5080199;28;19977;-80
2021/09/18 11:36:53;;;;;;;;;;;;;;;11.87;48.44;100337.41;5087534;27;19970;-81
2021/09/18 11:39:37;;;;;;;;;;;;;;;11.70;49.07;100342.56;5078740;28;19982;-92
2021/09/18 11:42:29;;;;;;;;;;;;;;;11.78;50.33;100333.66;5087346;28;19924;-81
2021/09/18 11:45:11;;;;;;;;;;;;;;;11.94;49.50;100337.84;5079009;27;19925;-84
2021/09/18 11:47:57;;;;;;;;;;;;;;;11.79;49.56;100331.72;5086531;27;20476;-82
2021/09/18 11:50:36;;;;;;;;;;;;;;;11.70;50.54;100340.63;5091943;27;2118109;-90
2021/09/18 11:53:16;;;;;;;;;;;;;;;11.68;50.33;100331.06;5139833;27;20486;-85
2021/09/18 11:55:57;;;;;;;;;;;;;;;11.64;50.62;100338.25;5086089;27;19978;-84
2021/09/18 11:58:39;;;;;;;;;;;;;;;11.48;50.68;100337.63;5077561;28;19920;-91
2021/09/18 12:01:19;;;;;;;;;;;;;;;11.70;51.15;100337.06;5085229;28;19924;-80
2021/09/18 12:03:59;;;;;;;;;;;;;;;11.69;50.47;100346.41;5076862;28;19969;-79
2021/09/18 12:06:37;;;;;;;;;;;;;;;11.72;49.98;100340.31;5066698;27;2213094;-80
2021/09/18 12:09:17;;;;;;;;;;;;;;;11.39;49.88;100332.00;5076875;27;20446;-81
2021/09/18 12:11:58;;;;;;;;;;;;;;;11.36;50.61;100335.34;5085149;27;19970;-81
2021/09/18 12:14:38;;;;;;;;;;;;;;;11.35;49.94;100327.41;5075921;27;19970;-82
2021/09/18 12:17:18;;;;;;;;;;;;;;;11.43;49.74;100335.78;5084808;27;19978;-81
2021/09/18 12:19:59;;;;;;;;;;;;;;;11.57;49.70;100332.31;5075895;28;20328;-85
2021/09/18 12:22:39;;;;;;;;;;;;;;;11.67;49.03;100329.44;5166650;27;19927;-80
2021/09/18 12:25:23;;;;;;;;;;;;;;;11.73;49.18;100323.59;5075809;27;19929;-80
2021/09/18 12:28:03;;;;;;;;;;;;;;;11.75;49.50;100313.16;5101160;27;19924;-84
2021/09/18 12:30:43;;;;;;;;;;;;;;;11.76;50.38;100313.97;5083615;27;19928;-81
2021/09/18 12:33:33;;;;;;;;;;;;;;;11.71;49.36;100320.31;5075404;28;20586;-81
2021/09/18 12:36:18;;;;;;;;;;;;;;;11.61;48.71;100320.47;5083832;28;19920;-89
2021/09/18 12:38:58;;;;;;;;;;;;;;;11.49;49.40;100318.19;5074539;28;19928;-83
2021/09/18 12:41:41;;;;;;;;;;;;;;;11.42;50.49;100315.00;5084140;28;19924;-90
2021/09/18 12:44:31;;;;;;;;;;;;;;;11.40;50.36;100305.44;5075025;27;20339;-80
2021/09/18 12:47:22;;;;;;;;;;;;;;;11.47;49.59;100316.84;5082983;28;19970;-81
2021/09/18 12:50:18;;;;;;;;;;;;;;;11.40;49.94;100317.19;5074661;27;19978;-81
2021/09/18 12:53:15;;;;;;;;;;;;;;;11.48;50.04;100313.00;5060968;28;19994;-82
2021/09/18 12:56:11;;;;;;;;;;;;;;;11.50;49.74;100313.53;5090538;27;2116573;-88
2021/09/18 12:58:53;;;;;;;;;;;;;;;11.47;50.80;100312.19;5074562;27;19925;-82